createdAt,value
2022-09-06T00:01:12.431Z,17.80
2022-09-06T00:03:42.269Z,17.79
2022-09-06T00:06:11.675Z,17.75
2022-09-06T00:08:39.693Z,17.74
2022-09-06T00:11:07.642Z,17.71
2022-09-06T00:13:35.340Z,17.71
2022-09-06T00:16:08.561Z,17.66
2022-09-06T00:18:36.774Z,17.65
2022-09-06T00:21:13.937Z,17.53
2022-09-06T00:23:41.726Z,17.48
2022-09-06T00:26:09.490Z,17.46
2022-09-06T00:28:37.054Z,17.47
2022-09-06T00:31:10.393Z,17.45
2022-09-06T00:33:38.111Z,17.44
2022-09-06T00:36:07.513Z,17.43
2022-09-06T00:38:35.477Z,17.44
2022-09-06T00:41:03.283Z,17.40
2022-09-06T00:43:30.836Z,17.34
2022-09-06T00:45:58.707Z,17.33
2022-09-06T00:48:26.334Z,17.29
2022-09-06T00:50:56.865Z,17.26
2022-09-06T00:53:26.725Z,17.22
2022-09-06T00:55:55.458Z,17.21
2022-09-06T00:58:23.083Z,17.19
2022-09-06T01:00:50.709Z,17.16
2022-09-06T01:03:19.475Z,17.13
2022-09-06T01:06:02.300Z,17.07
2022-09-06T01:08:46.076Z,17.04
2022-09-06T01:11:49.277Z,17.01
2022-09-06T01:14:30.444Z,16.99
2022-09-06T01:17:04.429Z,16.98
2022-09-06T01:19:52.490Z,16.95
2022-09-06T01:22:38.521Z,16.92
2022-09-06T01:25:25.784Z,16.84
2022-09-06T01:28:17.762Z,16.78
2022-09-06T01:30:52.012Z,16.74
2022-09-06T01:33:25.639Z,16.72
2022-09-06T01:36:00.360Z,16.67
2022-09-06T01:38:28.620Z,16.67
2022-09-06T01:40:56.510Z,16.62
2022-09-06T01:43:38.950Z,16.56
2022-09-06T01:46:20.576Z,16.48
2022-09-06T01:49:15.302Z,16.44
2022-09-06T01:51:57.812Z,16.47
2022-09-06T01:54:33.339Z,16.50
2022-09-06T01:57:12.648Z,16.48
2022-09-06T01:59:56.560Z,16.42
2022-09-06T02:02:33.851Z,16.35
2022-09-06T02:05:07.761Z,16.30
2022-09-06T02:07:37.753Z,16.28
2022-09-06T02:10:09.825Z,16.29
2022-09-06T02:12:41.664Z,16.25
2022-09-06T02:15:15.974Z,16.21
2022-09-06T02:17:48.585Z,16.17
2022-09-06T02:20:19.652Z,16.12
2022-09-06T02:22:50.465Z,16.11
2022-09-06T02:25:24.672Z,16.11
2022-09-06T02:27:53.778Z,16.10
2022-09-06T02:30:22.855Z,16.06
2022-09-06T02:32:59.171Z,16.10
2022-09-06T02:35:27.162Z,16.12
2022-09-06T02:37:55.920Z,16.16
2022-09-06T02:40:23.576Z,16.18
2022-09-06T02:42:51.131Z,16.11
2022-09-06T02:45:18.654Z,16.06
2022-09-06T02:47:47.516Z,15.96
2022-09-06T02:50:15.409Z,15.97
2022-09-06T02:52:43.313Z,15.99
2022-09-06T02:55:11.327Z,16.01
2022-09-06T02:57:39.603Z,16.05
2022-09-06T03:00:08.408Z,16.06
2022-09-06T03:02:36.327Z,16.04
2022-09-06T03:05:05.965Z,15.97
2022-09-06T03:07:33.894Z,15.95
2022-09-06T03:10:01.757Z,15.98
2022-09-06T03:12:29.634Z,16.01
2022-09-06T03:14:57.909Z,15.96
2022-09-06T03:17:25.735Z,15.94
2022-09-06T03:19:53.524Z,15.91
2022-09-06T03:22:22.556Z,15.91
2022-09-06T03:24:50.341Z,15.90
2022-09-06T03:27:18.334Z,15.91
2022-09-06T03:29:46.089Z,15.88
2022-09-06T03:32:13.803Z,15.80
2022-09-06T03:34:41.462Z,15.78
2022-09-06T03:37:09.410Z,15.78
2022-09-06T03:39:38.594Z,15.80
2022-09-06T03:42:06.599Z,15.83
2022-09-06T03:44:34.227Z,15.78
2022-09-06T03:47:02.028Z,15.71
2022-09-06T03:49:29.791Z,15.70
2022-09-06T03:51:57.493Z,15.62
2022-09-06T03:54:25.593Z,15.61
2022-09-06T03:56:54.927Z,15.55
2022-09-06T03:59:22.653Z,15.50
2022-09-06T04:01:50.414Z,15.44
2022-09-06T04:04:18.256Z,15.42
2022-09-06T04:06:45.991Z,15.45
2022-09-06T04:09:14.843Z,15.48
2022-09-06T04:11:45.019Z,15.50
2022-09-06T04:14:14.354Z,15.51
2022-09-06T04:16:42.499Z,15.51
2022-09-06T04:19:10.351Z,15.53
2022-09-06T04:21:38.759Z,15.49
2022-09-06T04:24:07.006Z,15.40
2022-09-06T04:26:34.989Z,15.34
2022-09-06T04:29:02.697Z,15.33
2022-09-06T04:31:31.890Z,15.35
2022-09-06T04:33:59.558Z,15.36
2022-09-06T04:36:27.304Z,15.40
2022-09-06T04:38:55.868Z,15.39
2022-09-06T04:41:23.599Z,15.41
2022-09-06T04:43:51.503Z,15.43
2022-09-06T04:46:22.463Z,15.44
2022-09-06T04:48:52.856Z,15.39
2022-09-06T04:51:21.528Z,15.40
2022-09-06T04:53:49.817Z,15.41
2022-09-06T04:56:19.640Z,15.39
2022-09-06T04:58:48.599Z,15.36
2022-09-06T05:01:17.374Z,15.24
2022-09-06T05:03:45.186Z,15.14
2022-09-06T05:06:20.813Z,15.17
2022-09-06T05:08:49.271Z,15.20
2022-09-06T05:11:17.060Z,15.21
2022-09-06T05:13:46.432Z,15.13
2022-09-06T05:16:14.301Z,15.07
2022-09-06T05:18:42.032Z,15.14
2022-09-06T05:21:09.789Z,15.16
2022-09-06T05:23:39.107Z,15.13
2022-09-06T05:26:07.162Z,15.15
2022-09-06T05:28:34.890Z,15.13
2022-09-06T05:31:09.855Z,15.11
2022-09-06T05:33:37.584Z,15.18
2022-09-06T05:36:06.726Z,15.18
2022-09-06T05:38:34.531Z,15.25
2022-09-06T05:41:03.598Z,15.28
2022-09-06T05:43:31.326Z,15.24
2022-09-06T05:45:59.496Z,15.33
2022-09-06T05:48:27.536Z,15.43
2022-09-06T05:51:01.609Z,15.50
2022-09-06T05:53:34.818Z,15.52
2022-09-06T05:56:04.697Z,15.58
2022-09-06T05:58:33.015Z,15.61
2022-09-06T06:01:08.964Z,15.64
2022-09-06T06:03:36.687Z,15.64
2022-09-06T06:06:04.329Z,15.70
2022-09-06T06:08:32.111Z,15.80
2022-09-06T06:11:01.152Z,15.94
2022-09-06T06:13:34.795Z,16.00
2022-09-06T06:16:03.376Z,16.15
2022-09-06T06:18:31.121Z,16.39
2022-09-06T06:21:09.028Z,16.63
2022-09-06T06:23:36.679Z,17.00
2022-09-06T06:26:05.105Z,17.36
2022-09-06T06:28:35.570Z,17.58
2022-09-06T06:31:03.442Z,17.72
2022-09-06T06:33:31.258Z,17.87
2022-09-06T06:36:00.592Z,18.12
2022-09-06T06:38:32.870Z,18.19
2022-09-06T06:41:05.800Z,18.36
2022-09-06T06:43:38.100Z,18.51
2022-09-06T06:46:06.461Z,18.64
2022-09-06T06:48:34.349Z,18.73
2022-09-06T06:51:02.290Z,18.98
2022-09-06T06:53:30.263Z,19.18
2022-09-06T06:55:57.986Z,19.40
2022-09-06T06:58:26.956Z,19.73
2022-09-06T07:00:56.093Z,20.07
2022-09-06T07:03:23.802Z,20.41
2022-09-06T07:08:39.096Z,20.98
2022-09-06T07:11:07.926Z,21.29
2022-09-06T07:13:35.682Z,21.84
2022-09-06T07:16:13.440Z,22.30
2022-09-06T07:18:42.262Z,22.46
2022-09-06T07:24:08.216Z,23.39
2022-09-06T07:26:38.541Z,23.77
2022-09-06T07:29:07.359Z,23.83
2022-09-06T07:34:26.215Z,24.45
2022-09-06T07:36:54.199Z,24.37
2022-09-06T07:39:22.441Z,24.15
2022-09-06T07:41:50.296Z,23.78
2022-09-06T07:44:17.947Z,23.58
2022-09-06T07:46:47.133Z,23.41
2022-09-06T07:49:15.188Z,23.67
2022-09-06T07:51:43.131Z,24.34
2022-09-06T07:54:30.026Z,24.90
2022-09-06T07:56:58.465Z,24.62
2022-09-06T07:59:27.635Z,24.18
2022-09-06T08:01:56.829Z,23.99
2022-09-06T08:04:24.887Z,23.74
2022-09-06T08:09:41.243Z,22.60
2022-09-06T08:12:09.733Z,22.43
2022-09-06T08:14:37.476Z,22.34
2022-09-06T08:17:06.849Z,22.24
2022-09-06T08:19:35.558Z,22.30
2022-09-06T08:22:04.545Z,22.38
2022-09-06T08:24:35.819Z,23.11
2022-09-06T08:27:03.716Z,23.44
2022-09-06T08:29:31.604Z,23.49
2022-09-06T08:31:59.424Z,23.51
2022-09-06T08:34:28.584Z,23.59
2022-09-06T08:36:56.579Z,23.60
2022-09-06T08:39:24.530Z,23.31
2022-09-06T08:41:56.897Z,23.48
2022-09-06T08:47:17.313Z,24.65
2022-09-06T08:49:54.932Z,24.89
2022-09-06T08:53:15.743Z,24.85
2022-09-06T08:55:38.831Z,24.28
2022-09-06T08:58:26.088Z,24.04
2022-09-06T09:00:59.357Z,24.15
2022-09-06T09:03:33.796Z,24.31
2022-09-06T09:06:05.451Z,25.00
2022-09-06T09:08:40.853Z,25.61
2022-09-06T09:11:11.717Z,25.87
2022-09-06T09:13:50.338Z,25.73
2022-09-06T09:16:18.769Z,25.37
2022-09-06T09:18:50.208Z,24.90
2022-09-06T09:21:24.708Z,24.46
2022-09-06T09:23:58.965Z,24.04
2022-09-06T09:26:29.414Z,23.92
2022-09-06T09:29:05.748Z,23.88
2022-09-06T09:31:39.261Z,23.81
2022-09-06T09:34:12.490Z,23.48
2022-09-06T09:39:36.144Z,23.32
2022-09-06T09:42:03.911Z,23.15
2022-09-06T09:44:31.875Z,23.37
2022-09-06T09:46:59.811Z,23.33
2022-09-06T09:49:30.584Z,23.26
2022-09-06T09:52:11.512Z,23.18
2022-09-06T09:54:42.163Z,23.25
2022-09-06T09:57:12.179Z,23.25
2022-09-06T09:59:45.627Z,23.38
2022-09-06T10:02:25.597Z,23.55
2022-09-06T10:04:54.923Z,23.48
2022-09-06T10:07:26.046Z,23.36
2022-09-06T10:10:00.763Z,23.35
2022-09-06T10:12:31.183Z,23.15
2022-09-06T10:15:02.448Z,23.12
2022-09-06T10:17:36.386Z,23.13
2022-09-06T10:20:09.211Z,23.24
2022-09-06T10:22:51.690Z,23.37
2022-09-06T10:25:38.861Z,23.31
2022-09-06T10:28:22.294Z,23.32
2022-09-06T10:31:08.668Z,23.17
2022-09-06T10:33:49.682Z,22.88
2022-09-06T10:36:21.637Z,22.90
2022-09-06T10:38:58.357Z,22.92
2022-09-06T10:41:40.506Z,22.97
2022-09-06T10:44:22.205Z,22.82
2022-09-06T10:46:56.582Z,22.54
2022-09-06T10:49:24.474Z,22.50
2022-09-06T10:51:58.053Z,22.32
2022-09-06T10:54:27.244Z,22.18
2022-09-06T10:56:58.902Z,22.19
2022-09-06T11:02:14.028Z,22.27
2022-09-06T11:07:35.001Z,22.58
2022-09-06T11:10:14.395Z,22.63
2022-09-06T11:12:46.775Z,22.82
2022-09-06T11:15:16.948Z,23.08
2022-09-06T11:17:50.800Z,23.27
2022-09-06T11:20:28.628Z,23.30
2022-09-06T11:23:24.332Z,23.54
2022-09-06T11:26:10.487Z,23.70
2022-09-06T11:28:44.956Z,23.71
2022-09-06T11:34:21.857Z,23.91
2022-09-06T11:36:51.588Z,23.91
2022-09-06T11:43:04.326Z,23.60
2022-09-06T11:45:45.518Z,23.36
2022-09-06T11:49:02.163Z,23.10
2022-09-06T11:51:36.141Z,23.03
2022-09-06T11:54:26.818Z,22.94
2022-09-06T11:56:59.578Z,22.80
2022-09-06T11:59:39.004Z,22.72
2022-09-06T12:02:28.908Z,22.67
2022-09-06T12:05:18.733Z,22.66
2022-09-06T12:08:24.684Z,22.63
2022-09-06T12:10:59.267Z,22.60
2022-09-06T12:13:48.619Z,22.55
2022-09-06T12:16:19.171Z,22.56
2022-09-06T12:19:01.803Z,22.60
2022-09-06T12:21:39.336Z,22.56
2022-09-06T12:24:09.176Z,22.59
2022-09-06T12:26:55.692Z,22.59
2022-09-06T12:29:26.589Z,22.54
2022-09-06T12:31:58.242Z,22.59
2022-09-06T12:34:30.081Z,22.69
2022-09-06T12:36:59.540Z,22.66
2022-09-06T12:39:28.084Z,22.63
2022-09-06T12:41:58.294Z,22.66
2022-09-06T12:44:32.609Z,22.73
2022-09-06T12:47:07.068Z,22.74
2022-09-06T12:49:36.030Z,22.83
2022-09-06T12:52:12.267Z,22.86
2022-09-06T12:54:46.244Z,22.84
2022-09-06T12:57:18.219Z,22.88
2022-09-06T12:59:54.736Z,23.03
2022-09-06T13:02:30.836Z,23.17
2022-09-06T13:05:05.413Z,23.31
2022-09-06T13:07:35.502Z,23.38
2022-09-06T13:10:04.121Z,23.46
2022-09-06T13:12:34.756Z,23.57
2022-09-06T13:15:08.654Z,23.63
2022-09-06T13:17:38.538Z,23.75
2022-09-06T13:20:15.075Z,23.90
2022-09-06T13:22:48.171Z,24.03
2022-09-06T13:25:23.636Z,24.08
2022-09-06T13:27:57.517Z,24.12
2022-09-06T13:30:37.844Z,24.13
2022-09-06T13:33:08.475Z,24.10
2022-09-06T13:35:39.096Z,24.02
2022-09-06T13:38:33.664Z,23.88
2022-09-06T13:41:17.398Z,23.69
2022-09-06T13:43:48.061Z,23.65
2022-09-06T13:46:16.154Z,23.64
2022-09-06T13:48:45.317Z,23.67
2022-09-06T13:51:13.040Z,23.59
2022-09-06T13:53:40.822Z,23.49
2022-09-06T13:56:09.054Z,23.43
2022-09-06T13:58:37.016Z,23.39
2022-09-06T14:01:08.656Z,23.38
2022-09-06T14:03:38.138Z,23.51
2022-09-06T14:06:08.095Z,23.59
2022-09-06T14:08:56.212Z,23.61
2022-09-06T14:11:25.778Z,23.50
2022-09-06T14:13:53.567Z,23.42
2022-09-06T14:16:21.982Z,23.49
2022-09-06T14:18:51.927Z,23.52
2022-09-06T14:21:21.211Z,23.54
2022-09-06T14:23:51.457Z,23.45
2022-09-06T14:26:21.169Z,23.37
2022-09-06T14:28:49.091Z,23.33
2022-09-06T14:31:19.597Z,23.31
2022-09-06T14:33:47.693Z,23.40
2022-09-06T14:36:17.364Z,23.34
2022-09-06T14:38:48.085Z,23.27
2022-09-06T14:41:17.800Z,23.34
2022-09-06T14:43:49.159Z,23.29
2022-09-06T14:46:18.269Z,23.33
2022-09-06T14:48:46.681Z,23.38
2022-09-06T14:51:19.369Z,23.50
2022-09-06T14:53:50.199Z,23.58
2022-09-06T14:56:18.187Z,23.58
2022-09-06T14:58:46.578Z,23.52
2022-09-06T15:01:16.639Z,23.42
2022-09-06T15:03:46.701Z,23.36
2022-09-06T15:06:14.554Z,23.31
2022-09-06T15:08:42.739Z,23.34
2022-09-06T15:11:12.570Z,23.32
2022-09-06T15:13:41.519Z,23.31
2022-09-06T15:16:11.625Z,23.34
2022-09-06T15:18:39.461Z,23.38
2022-09-06T15:21:10.985Z,23.35
2022-09-06T15:23:40.025Z,23.31
2022-09-06T15:26:09.089Z,23.24
2022-09-06T15:28:39.448Z,23.26
2022-09-06T15:31:08.587Z,23.29
2022-09-06T15:33:38.647Z,23.31
2022-09-06T15:36:08.953Z,23.33
2022-09-06T15:38:38.151Z,23.29
2022-09-06T15:41:08.280Z,23.17
2022-09-06T15:43:40.722Z,23.14
2022-09-06T15:46:09.278Z,23.11
2022-09-06T15:48:43.054Z,22.98
2022-09-06T15:51:11.368Z,22.96
2022-09-06T15:53:39.606Z,22.93
2022-09-06T15:56:08.483Z,22.91
2022-09-06T15:58:36.156Z,22.91
2022-09-06T16:01:08.204Z,22.88
2022-09-06T16:03:42.016Z,22.80
2022-09-06T16:06:28.088Z,22.82
2022-09-06T16:08:59.331Z,22.80
2022-09-06T16:11:28.446Z,22.81
2022-09-06T16:13:56.321Z,22.80
2022-09-06T16:16:25.788Z,22.76
2022-09-06T16:18:53.767Z,22.72
2022-09-06T16:21:24.553Z,22.73
2022-09-06T16:23:54.459Z,22.69
2022-09-06T16:26:23.442Z,22.59
2022-09-06T16:28:52.605Z,22.57
2022-09-06T16:31:21.995Z,22.54
2022-09-06T16:33:53.858Z,22.52
2022-09-06T16:36:22.446Z,22.54
2022-09-06T16:38:50.683Z,22.47
2022-09-06T16:41:20.427Z,22.44
2022-09-06T16:43:49.619Z,22.48
2022-09-06T16:46:17.732Z,22.48
2022-09-06T16:48:53.155Z,22.44
2022-09-06T16:51:22.991Z,22.44
2022-09-06T16:53:52.018Z,22.48
2022-09-06T16:56:21.472Z,22.53
2022-09-06T16:58:53.466Z,22.53
2022-09-06T17:01:22.652Z,22.47
2022-09-06T17:03:51.230Z,22.47
2022-09-06T17:06:21.654Z,22.51
2022-09-06T17:08:49.702Z,22.50
2022-09-06T17:11:19.453Z,22.42
2022-09-06T17:13:49.431Z,22.42
2022-09-06T17:16:35.633Z,22.33
2022-09-06T17:19:04.601Z,22.26
2022-09-06T17:21:34.554Z,22.25
2022-09-06T17:24:04.714Z,22.23
2022-09-06T17:26:34.607Z,22.18
2022-09-06T17:29:02.509Z,22.15
2022-09-06T17:31:30.449Z,22.14
2022-09-06T17:33:59.583Z,22.12
2022-09-06T17:36:30.489Z,22.09
2022-09-06T17:39:05.209Z,22.03
2022-09-06T17:41:37.749Z,22.04
2022-09-06T17:44:06.795Z,22.06
2022-09-06T17:46:34.620Z,22.03
2022-09-06T17:49:02.523Z,22.04
2022-09-06T17:51:30.307Z,22.01
2022-09-06T17:53:58.422Z,21.92
2022-09-06T17:56:27.853Z,21.88
2022-09-06T17:58:57.456Z,21.84
2022-09-06T18:01:26.779Z,21.78
2022-09-06T18:03:54.598Z,21.79
2022-09-06T18:06:24.984Z,21.77
2022-09-06T18:08:54.572Z,21.68
2022-09-06T18:11:24.888Z,21.67
2022-09-06T18:13:59.101Z,21.64
2022-09-06T18:16:28.076Z,21.63
2022-09-06T18:18:57.509Z,21.52
2022-09-06T18:21:26.891Z,21.46
2022-09-06T18:23:55.340Z,21.40
2022-09-06T18:26:23.558Z,21.43
2022-09-06T18:28:53.064Z,21.44
2022-09-06T18:31:25.489Z,21.47
2022-09-06T18:33:53.966Z,21.50
2022-09-06T18:36:22.624Z,21.50
2022-09-06T18:38:50.516Z,21.49
2022-09-06T18:41:32.260Z,21.47
2022-09-06T18:44:02.557Z,21.42
2022-09-06T18:46:32.735Z,21.35
2022-09-06T18:49:01.089Z,21.29
2022-09-06T18:51:29.546Z,21.27
2022-09-06T18:53:59.332Z,21.25
2022-09-06T18:56:28.204Z,21.20
2022-09-06T18:58:58.139Z,21.16
2022-09-06T19:01:28.471Z,21.11
2022-09-06T19:03:58.814Z,21.11
2022-09-06T19:06:28.885Z,21.15
2022-09-06T19:08:59.574Z,21.17
2022-09-06T19:11:29.403Z,21.15
2022-09-06T19:13:59.622Z,21.10
2022-09-06T19:16:29.080Z,21.04
2022-09-06T19:19:03.053Z,20.98
2022-09-06T19:21:30.902Z,20.89
2022-09-06T19:24:02.177Z,20.85
2022-09-06T19:26:32.125Z,20.87
2022-09-06T19:29:02.105Z,20.88
2022-09-06T19:31:33.125Z,20.88
2022-09-06T19:34:03.123Z,20.85
2022-09-06T19:36:31.961Z,20.80
2022-09-06T19:39:03.931Z,20.71
2022-09-06T19:41:34.255Z,20.71
2022-09-06T19:44:05.473Z,20.71
2022-09-06T19:46:33.578Z,20.71
2022-09-06T19:49:03.333Z,20.62
2022-09-06T19:51:31.757Z,20.58
2022-09-06T19:53:59.954Z,20.55
2022-09-06T19:56:30.127Z,20.53
2022-09-06T19:59:01.511Z,20.50
2022-09-06T20:01:32.772Z,20.52
2022-09-06T20:04:07.002Z,20.53
2022-09-06T20:06:35.980Z,20.54
2022-09-06T20:09:06.426Z,20.52
2022-09-06T20:11:35.849Z,20.48
2022-09-06T20:14:04.090Z,20.43
2022-09-06T20:16:32.752Z,20.40
2022-09-06T20:19:02.888Z,20.36
2022-09-06T20:21:31.460Z,20.31
2022-09-06T20:24:00.479Z,20.31
2022-09-06T20:26:31.377Z,20.31
2022-09-06T20:29:00.571Z,20.27
2022-09-06T20:31:29.394Z,20.24
2022-09-06T20:33:59.314Z,20.22
2022-09-06T20:36:28.948Z,20.20
2022-09-06T20:38:58.472Z,20.20
2022-09-06T20:41:27.635Z,20.20
2022-09-06T20:43:57.460Z,20.18
2022-09-06T20:46:27.113Z,20.11
2022-09-06T20:48:57.714Z,20.02
2022-09-06T20:51:26.035Z,19.97
2022-09-06T20:53:56.613Z,19.91
2022-09-06T20:56:26.101Z,19.86
2022-09-06T20:58:56.267Z,19.83
2022-09-06T21:01:26.221Z,19.78
2022-09-06T21:03:55.602Z,19.73
2022-09-06T21:06:24.385Z,19.73
2022-09-06T21:08:52.868Z,19.76
2022-09-06T21:11:22.198Z,19.74
2022-09-06T21:13:51.451Z,19.71
2022-09-06T21:16:24.239Z,19.67
2022-09-06T21:18:53.661Z,19.68
2022-09-06T21:21:22.239Z,19.68
2022-09-06T21:23:50.780Z,19.69
2022-09-06T21:26:19.032Z,19.68
2022-09-06T21:28:48.201Z,19.67
2022-09-06T21:31:17.805Z,19.66
2022-09-06T21:33:48.583Z,19.60
2022-09-06T21:36:18.521Z,19.52
2022-09-06T21:38:47.914Z,19.48
2022-09-06T21:41:17.434Z,19.49
2022-09-06T21:43:45.820Z,19.51
2022-09-06T21:46:18.271Z,19.47
2022-09-06T21:48:48.466Z,19.45
2022-09-06T21:51:19.278Z,19.40
2022-09-06T21:53:48.699Z,19.40
2022-09-06T21:56:19.599Z,19.37
2022-09-06T21:58:50.949Z,19.31
2022-09-06T22:01:20.670Z,19.27
2022-09-06T22:03:48.608Z,19.26
2022-09-06T22:06:18.249Z,19.22
2022-09-06T22:08:46.129Z,19.20
2022-09-06T22:11:15.321Z,19.20
2022-09-06T22:13:44.031Z,19.22
2022-09-06T22:16:13.666Z,19.20
2022-09-06T22:18:42.946Z,19.19
2022-09-06T22:21:12.860Z,19.19
2022-09-06T22:23:40.905Z,19.18
2022-09-06T22:26:11.518Z,19.15
2022-09-06T22:28:40.278Z,19.10
2022-09-06T22:31:09.152Z,19.11
2022-09-06T22:33:37.303Z,19.11
2022-09-06T22:36:07.559Z,19.09
2022-09-06T22:38:35.408Z,19.10
2022-09-06T22:41:03.228Z,19.12
2022-09-06T22:43:31.346Z,19.09
2022-09-06T22:46:04.619Z,19.09
2022-09-06T22:48:32.751Z,19.10
2022-09-06T22:51:01.247Z,19.04
2022-09-06T22:53:31.524Z,18.98
2022-09-06T22:55:59.478Z,18.96
2022-09-06T22:58:28.072Z,18.99
2022-09-06T23:00:56.646Z,19.00
2022-09-06T23:03:24.904Z,19.00
2022-09-06T23:05:52.580Z,19.01
2022-09-06T23:08:20.438Z,19.01
2022-09-06T23:10:49.546Z,18.96
2022-09-06T23:13:17.303Z,18.92
2022-09-06T23:15:46.177Z,18.83
2022-09-06T23:18:14.482Z,18.78
2022-09-06T23:20:42.238Z,18.79
2022-09-06T23:23:10.061Z,18.76
2022-09-06T23:25:38.789Z,18.77
2022-09-06T23:28:08.073Z,18.79
2022-09-06T23:30:38.343Z,18.78
2022-09-06T23:33:06.777Z,18.76
2022-09-06T23:35:34.659Z,18.76
2022-09-06T23:38:02.526Z,18.76
2022-09-06T23:40:30.393Z,18.80
2022-09-06T23:42:58.314Z,18.83
2022-09-06T23:45:27.679Z,18.85
2022-09-06T23:47:55.381Z,18.86
2022-09-06T23:50:23.128Z,18.86
2022-09-06T23:52:51.075Z,18.84
2022-09-06T23:55:18.918Z,18.84
2022-09-06T23:57:46.679Z,18.85
